createdAt,value
2022-10-01T00:29:09.522Z,5.88
2022-10-01T00:59:12.890Z,5.73
2022-10-01T01:29:16.626Z,5.40
2022-10-01T01:59:20.769Z,5.02
2022-10-01T02:29:24.091Z,5.39
2022-10-01T02:59:27.499Z,5.66
2022-10-01T03:29:32.342Z,5.46
2022-10-01T03:59:35.593Z,5.25
2022-10-01T04:29:40.335Z,4.97
2022-10-01T04:59:44.264Z,4.81
2022-10-01T05:29:47.689Z,4.75
2022-10-01T05:59:50.805Z,5.50
2022-10-01T06:29:54.968Z,6.48
2022-10-01T06:59:58.156Z,7.51
2022-10-01T07:30:01.495Z,8.93
2022-10-01T08:00:05.554Z,10.40
2022-10-01T08:30:08.623Z,11.34
2022-10-01T09:00:11.849Z,12.40
2022-10-01T09:30:15.513Z,13.78
2022-10-01T10:00:18.359Z,14.07
2022-10-01T10:30:23.010Z,14.16
2022-10-01T11:00:25.869Z,14.27
2022-10-01T11:30:29.880Z,14.65
2022-10-01T12:00:33.072Z,14.86
2022-10-01T12:30:36.562Z,14.99
2022-10-01T13:00:39.816Z,14.95
2022-10-01T13:30:43.360Z,14.92
2022-10-01T14:00:46.736Z,14.35
2022-10-01T14:30:50.844Z,12.89
2022-10-01T15:00:54.020Z,11.71
2022-10-01T15:30:57.345Z,11.08
2022-10-01T16:01:00.672Z,10.82
2022-10-01T16:31:04.211Z,10.78
2022-10-01T17:01:07.907Z,10.69
2022-10-01T17:31:14.391Z,10.34
2022-10-01T18:01:21.294Z,10.14
2022-10-01T18:31:24.616Z,10.12
2022-10-01T19:01:27.577Z,10.22
2022-10-01T19:31:31.616Z,10.24
2022-10-01T20:01:34.452Z,10.25
2022-10-01T20:31:38.883Z,10.27
2022-10-01T21:01:41.761Z,10.27
2022-10-01T21:31:46.213Z,10.29
2022-10-01T22:01:49.059Z,10.28
2022-10-01T22:31:53.050Z,10.30
2022-10-01T23:01:55.970Z,10.27
2022-10-01T23:31:59.903Z,10.24
